Time;durP1;ratioP1;P1;durP2;ratioP2;P2;SDS_P1;SDS_P2;PMS_P1;PMS_P2;Temp;Humidity;BMP_temperature;BMP_pressure;BME280_temperature;BME280_humidity;BME280_pressure;Samples;Min_cycle;Max_cycle;Signal;HPM_P1;HPM_P2
2022/07/29 00:00:12;;;;;;;;;7.00;6.00;;;;;23.51;36.19;101287.16;4963357;28;45485;-60
2022/07/29 00:02:38;;;;;;;;;10.50;8.00;;;;;23.47;35.80;101277.75;4963190;28;45455;-60
2022/07/29 00:05:04;;;;;;;;;9.75;7.25;;;;;23.43;35.95;101284.44;4961814;28;45354;-60
2022/07/29 00:07:30;;;;;;;;;8.50;8.50;;;;;23.38;36.30;101279.53;4963202;28;45397;-60
2022/07/29 00:09:56;;;;;;;;;7.50;7.25;;;;;23.38;36.23;101282.22;4963134;28;45305;-60
2022/07/29 00:12:24;;;;;;;;;9.50;9.00;;;;;23.37;36.54;101275.16;4963050;28;47264;-60
2022/07/29 00:14:50;;;;;;;;;13.00;10.00;;;;;23.37;36.40;101272.47;4962889;28;45255;-60
2022/07/29 00:17:15;;;;;;;;;15.50;12.25;;;;;23.37;36.17;101269.78;4962823;28;45275;-60
2022/07/29 00:19:41;;;;;;;;;17.00;14.00;;;;;23.36;36.48;101262.72;4963190;28;45236;-60
2022/07/29 00:22:06;;;;;;;;;14.75;12.75;;;;;23.34;36.46;101262.03;4962751;28;46248;-60
2022/07/29 00:24:32;;;;;;;;;17.75;14.00;;;;;23.33;36.08;101263.06;4962695;28;45405;-59
2022/07/29 00:26:57;;;;;;;;;13.25;9.50;;;;;23.32;36.50;101258.69;4963063;28;45496;-59
2022/07/29 00:29:23;;;;;;;;;12.50;12.50;;;;;23.30;35.92;101266.03;4962950;28;45375;-59
2022/07/29 00:31:49;;;;;;;;;12.25;11.00;;;;;23.26;36.44;101254.78;4962632;28;45320;-60
2022/07/29 00:36:58;;;;;;;;;9.50;9.00;;;;;23.22;36.15;101248.03;4960144;28;45393;-60
2022/07/29 00:39:24;;;;;;;;;12.00;11.75;;;;;23.21;36.58;101251.72;4947306;28;45297;-60
2022/07/29 00:41:49;;;;;;;;;14.00;13.50;;;;;23.20;36.34;101249.19;4962654;28;45289;-59
2022/07/29 00:44:15;;;;;;;;;14.00;11.75;;;;;23.20;36.30;101241.13;4962305;28;45372;-59
2022/07/29 00:46:40;;;;;;;;;14.25;10.50;;;;;23.15;36.62;101241.63;4962680;28;45245;-59
2022/07/29 00:49:07;;;;;;;;;16.25;11.75;;;;;23.15;36.28;101244.31;4962468;28;45326;-59
2022/07/29 00:51:36;;;;;;;;;14.50;10.75;;;;;23.10;36.79;101247.47;4962177;28;45399;-60
2022/07/29 00:54:02;;;;;;;;;16.25;13.00;;;;;23.06;36.51;101251.47;4962240;28;45432;-60
2022/07/29 00:56:30;;;;;;;;;13.25;11.25;;;;;22.98;36.72;101247.91;4962472;28;45353;-59
2022/07/29 00:58:56;;;;;;;;;13.25;12.00;;;;;22.92;37.14;101243.19;4962419;28;45488;-60
2022/07/29 01:01:22;;;;;;;;;10.75;10.75;;;;;22.87;36.92;101246.34;4962106;28;47130;-59
2022/07/29 01:03:47;;;;;;;;;13.50;10.25;;;;;22.85;37.02;101242.97;4961947;28;45242;-60
2022/07/29 01:06:14;;;;;;;;;11.00;10.25;;;;;22.87;37.09;101238.28;4962040;28;45239;-59
2022/07/29 01:08:40;;;;;;;;;18.75;14.00;;;;;22.87;37.54;101243.66;4962295;28;45452;-59
2022/07/29 01:11:06;;;;;;;;;14.00;12.75;;;;;22.83;37.52;101239.56;4962129;28;45908;-60
2022/07/29 01:13:33;;;;;;;;;8.50;8.50;;;;;22.82;37.59;101251.28;4962215;28;45583;-60
2022/07/29 01:16:07;;;;;;;;;8.25;8.00;;;;;22.77;37.68;101246.41;4962023;28;45449;-59
2022/07/29 01:18:37;;;;;;;;;12.50;10.00;;;;;22.71;37.58;101241.66;4962057;28;45432;-59
2022/07/29 01:21:21;;;;;;;;;11.75;9.00;;;;;22.67;37.65;101243.00;4961703;28;46187;-59
2022/07/29 01:23:53;;;;;;;;;11.25;9.50;;;;;22.62;37.69;101242.63;4961834;28;45396;-59
2022/07/29 01:26:30;;;;;;;;;10.00;8.00;;;;;22.58;37.95;101241.22;4961896;28;45330;-59
2022/07/29 01:29:06;;;;;;;;;11.25;10.00;;;;;22.54;37.99;101246.09;4962084;28;45339;-59
2022/07/29 01:31:43;;;;;;;;;8.25;8.25;;;;;22.54;38.12;101246.09;4962069;28;46167;-59
2022/07/29 01:34:15;;;;;;;;;8.00;7.25;;;;;22.54;38.40;101251.44;4960504;28;45457;-59
2022/07/29 01:36:46;;;;;;;;;7.50;6.75;;;;;22.54;38.17;101253.28;4961657;28;45255;-59
2022/07/29 01:39:19;;;;;;;;;10.25;9.00;;;;;22.54;38.24;101254.13;4958874;28;45345;-59
2022/07/29 01:41:59;;;;;;;;;10.75;10.00;;;;;22.51;38.30;101251.78;4961650;28;45473;-59
2022/07/29 01:44:35;;;;;;;;;11.00;9.25;;;;;22.49;38.62;101244.84;4961420;28;45372;-60
2022/07/29 01:47:12;;;;;;;;;7.50;7.00;;;;;22.45;38.95;101241.66;4961615;28;45322;-59
2022/07/29 01:49:43;;;;;;;;;9.50;8.25;;;;;22.44;38.87;101239.13;4962137;28;45227;-60
2022/07/29 01:52:18;;;;;;;;;7.50;7.00;;;;;22.43;39.06;101248.16;4961213;28;46912;-59
2022/07/29 01:54:51;;;;;;;;;7.75;6.25;;;;;22.40;38.77;101243.09;4961713;28;45332;-59
2022/07/29 01:57:21;;;;;;;;;7.25;7.25;;;;;22.41;38.86;101255.53;4964618;28;45281;-59
2022/07/29 01:59:48;;;;;;;;;6.00;5.75;;;;;22.40;39.07;101253.84;4965377;28;45241;-60
2022/07/29 02:02:18;;;;;;;;;7.75;6.00;;;;;22.40;38.85;101246.63;4964728;28;45318;-59
2022/07/29 02:04:48;;;;;;;;;8.50;7.00;;;;;22.42;39.12;101252.69;4965075;28;45341;-59
2022/07/29 02:07:19;;;;;;;;;11.00;8.75;;;;;22.43;38.92;101245.47;4964718;28;45302;-59
2022/07/29 02:09:47;;;;;;;;;8.00;8.00;;;;;22.43;39.23;101248.16;4965057;28;45316;-60
2022/07/29 02:12:15;;;;;;;;;7.25;6.25;;;;;22.44;39.10;101260.59;4965046;28;45230;-60
2022/07/29 02:14:47;;;;;;;;;12.00;8.00;;;;;22.40;39.23;101257.38;4964684;28;45244;-60
2022/07/29 02:17:15;;;;;;;;;12.75;8.00;;;;;22.35;39.14;101256.13;4964641;28;45247;-61
2022/07/29 02:19:44;;;;;;;;;7.75;7.50;;;;;22.34;39.15;101260.66;4964795;28;45603;-59
2022/07/29 02:22:10;;;;;;;;;10.75;9.00;;;;;22.35;39.05;101259.66;4964459;28;45330;-60
2022/07/29 02:24:39;;;;;;;;;9.50;8.00;;;;;22.35;39.26;101254.28;4964533;28;45532;-59
2022/07/29 02:27:08;;;;;;;;;9.00;7.00;;;;;22.34;39.13;101260.66;4964873;28;45239;-60
2022/07/29 02:29:36;;;;;;;;;13.00;9.00;;;;;22.34;39.13;101265.19;4964722;28;45326;-60
2022/07/29 02:32:04;;;;;;;;;11.75;8.00;;;;;22.33;39.13;101263.50;4964540;28;45349;-59
2022/07/29 02:34:30;;;;;;;;;7.50;7.50;;;;;22.34;38.95;101266.03;4964534;28;45393;-59
2022/07/29 02:36:56;;;;;;;;;11.50;11.25;;;;;22.34;39.16;101255.28;4962355;28;45164;-60
2022/07/29 02:39:24;;;;;;;;;10.25;7.25;;;;;22.28;39.22;101264.84;4949068;28;45215;-59
2022/07/29 02:42:01;;;;;;;;;9.00;7.00;;;;;22.23;39.29;101264.44;4964547;28;46191;-60
2022/07/29 02:44:26;;;;;;;;;8.75;7.25;;;;;22.19;39.07;101262.22;4964231;28;45396;-59
2022/07/29 02:47:03;;;;;;;;;7.75;7.75;;;;;22.17;39.21;101270.41;4964565;28;45205;-59
2022/07/29 02:49:38;;;;;;;;;11.00;8.25;;;;;22.17;39.21;101269.56;4964807;28;45223;-59
2022/07/29 02:52:04;;;;;;;;;14.00;10.00;;;;;22.19;39.50;101273.78;4964203;28;45279;-59
2022/07/29 02:54:40;;;;;;;;;8.75;7.00;;;;;22.17;39.50;101270.41;4964232;28;45231;-59
2022/07/29 02:57:15;;;;;;;;;9.25;8.25;;;;;22.12;39.50;101269.19;4964371;28;45279;-59
2022/07/29 02:59:43;;;;;;;;;9.00;9.00;;;;;22.07;39.36;101261.56;4964321;28;45399;-59
2022/07/29 03:02:10;;;;;;;;;6.75;6.50;;;;;22.05;39.65;101274.31;4964051;28;46347;-59
2022/07/29 03:04:40;;;;;;;;;9.75;5.50;;;;;22.04;39.55;101278.00;4964093;28;45357;-60
2022/07/29 03:07:06;;;;;;;;;9.00;7.75;;;;;22.02;39.90;101275.44;4962960;28;45592;-59
2022/07/29 03:09:33;;;;;;;;;10.50;9.00;;;;;22.00;39.74;101273.91;4964056;28;45237;-60
2022/07/29 03:12:00;;;;;;;;;9.25;9.25;;;;;21.99;40.10;101275.75;4964027;28;45353;-59
2022/07/29 03:14:26;;;;;;;;;11.75;10.00;;;;;21.99;40.32;101278.44;4963839;28;45401;-59
2022/07/29 03:16:52;;;;;;;;;10.50;10.00;;;;;21.98;40.34;101275.91;4963955;28;45183;-59
2022/07/29 03:19:20;;;;;;;;;10.50;9.25;;;;;21.96;40.41;101281.44;4963868;28;45728;-60
2022/07/29 03:21:45;;;;;;;;;7.50;7.50;;;;;21.92;40.43;101274.66;4963483;28;45352;-59
2022/07/29 03:24:33;;;;;;;;;12.00;10.50;;;;;21.98;40.75;101286.63;4963624;28;45461;-59
2022/07/29 03:26:59;;;;;;;;;10.75;9.50;;;;;21.99;40.58;101283.78;4963916;28;45313;-59
2022/07/29 03:29:25;;;;;;;;;14.00;9.75;;;;;21.95;40.56;101282.41;4963806;28;45342;-59
2022/07/29 03:31:52;;;;;;;;;11.00;11.00;;;;;21.94;40.79;101291.44;4963774;28;45979;-60
2022/07/29 03:34:17;;;;;;;;;11.00;10.00;;;;;21.94;40.88;101288.75;4963382;28;45235;-59
2022/07/29 03:36:43;;;;;;;;;10.00;9.00;;;;;21.94;40.94;101280.72;4963238;28;45152;-59
2022/07/29 03:39:10;;;;;;;;;9.50;7.75;;;;;21.93;41.05;101283.56;4946500;28;45176;-59
2022/07/29 03:41:38;;;;;;;;;12.50;10.75;;;;;21.92;41.20;101279.19;4963623;28;45295;-60
2022/07/29 03:44:06;;;;;;;;;10.75;9.25;;;;;21.92;40.85;101279.19;4963498;28;45505;-59
2022/07/29 03:46:35;;;;;;;;;10.75;8.25;;;;;21.93;41.22;101287.06;4963512;28;45321;-59
2022/07/29 03:49:04;;;;;;;;;14.00;11.50;;;;;21.93;41.26;101283.56;4963404;28;45334;-60
2022/07/29 03:51:30;;;;;;;;;12.50;11.00;;;;;21.89;41.51;101284.88;4963123;28;46333;-59
2022/07/29 03:53:56;;;;;;;;;13.50;9.50;;;;;21.83;41.45;101286.31;4963387;28;45350;-59
2022/07/29 03:56:23;;;;;;;;;12.00;10.25;;;;;21.82;41.41;101284.63;4963281;28;45329;-59
2022/07/29 03:58:53;;;;;;;;;10.50;9.00;;;;;21.79;41.46;101290.25;4963434;28;45216;-59
2022/07/29 04:01:20;;;;;;;;;11.50;9.00;;;;;21.79;41.73;101290.25;4963164;28;45974;-59
2022/07/29 04:03:45;;;;;;;;;10.50;10.00;;;;;21.79;41.65;101287.59;4963239;28;45277;-60
2022/07/29 04:06:12;;;;;;;;;9.00;9.00;;;;;21.76;41.62;101287.91;4963046;28;45391;-60
2022/07/29 04:08:38;;;;;;;;;13.25;12.00;;;;;21.77;41.89;101296.78;4963381;28;45315;-59
2022/07/29 04:11:05;;;;;;;;;8.75;8.50;;;;;21.74;41.68;101296.09;4963069;28;46171;-59
2022/07/29 04:13:31;;;;;;;;;10.75;9.00;;;;;21.74;41.94;101305.97;4963066;28;45176;-59
2022/07/29 04:15:57;;;;;;;;;10.25;10.25;;;;;21.73;42.15;101301.63;4962958;28;45396;-60
2022/07/29 04:18:23;;;;;;;;;16.00;12.00;;;;;21.72;41.86;101297.22;4962337;28;45636;-59
2022/07/29 04:20:48;;;;;;;;;9.75;9.25;;;;;21.69;41.91;101301.06;4962762;28;45309;-60
2022/07/29 04:23:14;;;;;;;;;14.00;11.00;;;;;21.65;42.17;101304.19;4962992;28;45314;-59
2022/07/29 04:25:41;;;;;;;;;13.50;11.25;;;;;21.63;42.36;101295.44;4962945;28;45314;-60
2022/07/29 04:28:07;;;;;;;;;11.00;9.75;;;;;21.61;42.10;101298.28;4963117;28;45246;-59
2022/07/29 04:30:35;;;;;;;;;14.50;11.00;;;;;21.61;42.12;101302.78;4962796;28;45330;-59
2022/07/29 04:33:02;;;;;;;;;11.00;10.50;;;;;21.60;42.49;101298.44;4962583;28;45346;-59
2022/07/29 04:35:29;;;;;;;;;13.75;10.50;;;;;21.60;42.55;101301.94;4962692;28;45323;-59
2022/07/29 04:37:55;;;;;;;;;16.25;12.00;;;;;21.58;42.44;101303.94;4952770;28;45552;-59
2022/07/29 04:40:20;;;;;;;;;11.75;11.50;;;;;21.58;42.64;101305.78;4955128;28;45437;-60
2022/07/29 04:42:46;;;;;;;;;12.25;10.00;;;;;21.58;42.66;101313.84;4962523;28;45371;-59
2022/07/29 04:45:12;;;;;;;;;17.00;14.00;;;;;21.58;42.81;101313.84;4962700;28;45323;-59
2022/07/29 04:47:37;;;;;;;;;12.25;12.25;;;;;21.58;42.86;101306.63;4962720;28;45250;-59
2022/07/29 04:50:03;;;;;;;;;12.25;11.50;;;;;21.58;42.64;101313.84;4962338;28;45754;-59
2022/07/29 04:52:29;;;;;;;;;14.75;13.00;;;;;21.58;42.81;101319.19;4962498;28;45230;-59
2022/07/29 04:54:54;;;;;;;;;11.50;11.50;;;;;21.59;42.86;101315.50;4962617;28;45468;-59
2022/07/29 04:57:19;;;;;;;;;19.75;15.00;;;;;21.59;42.72;101312.84;4962397;28;45484;-59
2022/07/29 04:59:45;;;;;;;;;14.50;13.75;;;;;21.61;42.66;101316.19;4962408;28;45433;-60
2022/07/29 05:02:10;;;;;;;;;18.50;13.75;;;;;21.63;42.74;101312.38;4962182;28;45423;-60
2022/07/29 05:04:36;;;;;;;;;15.75;13.75;;;;;21.65;42.83;101323.81;4962540;28;45214;-60
2022/07/29 05:07:01;;;;;;;;;14.50;12.50;;;;;21.69;42.87;101319.81;4960939;28;45260;-59
2022/07/29 05:09:27;;;;;;;;;19.25;13.75;;;;;21.70;42.94;101315.31;4962381;28;46115;-59
2022/07/29 05:11:52;;;;;;;;;22.25;15.75;;;;;21.73;43.09;101321.22;4962058;28;45513;-60
2022/07/29 05:14:17;;;;;;;;;16.25;14.50;;;;;21.76;43.17;101322.75;4962301;28;45348;-59
2022/07/29 05:16:43;;;;;;;;;21.00;16.50;;;;;21.80;43.28;101320.59;4961977;28;45279;-60
2022/07/29 05:19:09;;;;;;;;;18.50;15.25;;;;;21.85;43.20;101323.69;4960402;28;46034;-59
2022/07/29 05:21:34;;;;;;;;;14.75;13.00;;;;;21.89;42.90;101319.75;4961763;28;45246;-59
2022/07/29 05:24:00;;;;;;;;;17.00;16.25;;;;;21.95;42.82;101324.47;4962038;28;45411;-59
2022/07/29 05:26:25;;;;;;;;;16.50;15.25;;;;;21.98;43.06;101325.03;4962086;28;45311;-59
2022/07/29 05:28:51;;;;;;;;;17.75;16.00;;;;;22.01;42.77;101327.41;4960760;28;45450;-59
2022/07/29 05:31:16;;;;;;;;;18.25;15.00;;;;;22.04;43.13;101328.97;4960810;28;45387;-59
2022/07/29 05:33:42;;;;;;;;;22.25;18.00;;;;;22.05;42.82;101324.44;4962114;28;45307;-59
2022/07/29 05:36:07;;;;;;;;;21.50;19.00;;;;;22.06;42.61;101328.81;4961577;28;45501;-60
2022/07/29 05:38:34;;;;;;;;;17.50;15.75;;;;;22.09;42.62;101326.69;4946705;28;45321;-60
2022/07/29 05:40:59;;;;;;;;;18.50;15.75;;;;;22.14;42.81;101332.44;4959322;28;45223;-59
2022/07/29 05:43:28;;;;;;;;;19.50;16.00;;;;;22.19;42.67;101330.13;4961760;28;45278;-59
2022/07/29 05:45:54;;;;;;;;;15.25;15.00;;;;;22.17;42.11;101329.44;4961687;28;45488;-58
2022/07/29 05:48:20;;;;;;;;;19.75;14.75;;;;;22.18;42.53;101336.50;4961566;28;46342;-59
2022/07/29 05:50:45;;;;;;;;;21.50;15.25;;;;;22.17;42.58;101328.59;4961452;28;45374;-60
2022/07/29 05:53:10;;;;;;;;;17.00;15.50;;;;;22.17;42.26;101334.81;4961835;28;45275;-60
2022/07/29 05:55:36;;;;;;;;;21.25;15.75;;;;;22.18;42.46;101333.81;4961614;28;45540;-59
2022/07/29 05:58:02;;;;;;;;;20.00;15.25;;;;;22.19;42.42;101337.34;4961397;28;45413;-59
2022/07/29 06:00:27;;;;;;;;;25.50;16.75;;;;;22.18;42.48;101333.81;4961464;28;45341;-60
2022/07/29 06:02:53;;;;;;;;;20.75;15.00;;;;;22.19;42.31;101340.03;4961529;28;45303;-59
2022/07/29 06:05:18;;;;;;;;;17.50;11.25;;;;;22.22;42.22;101347.78;4961390;28;45617;-60
2022/07/29 06:07:44;;;;;;;;;11.00;9.75;;;;;22.23;42.10;101347.63;4961616;28;45531;-60
2022/07/29 06:10:10;;;;;;;;;11.25;9.50;;;;;22.21;41.84;101340.75;4961290;28;45217;-60
2022/07/29 06:12:35;;;;;;;;;11.50;9.75;;;;;22.23;41.61;101344.13;4961611;28;45306;-60
2022/07/29 06:15:01;;;;;;;;;10.00;8.50;;;;;22.28;41.69;101349.88;4961299;28;45484;-60
2022/07/29 06:17:27;;;;;;;;;8.25;7.50;;;;;22.28;41.70;101342.66;4960929;28;45790;-60
2022/07/29 06:19:52;;;;;;;;;10.00;9.00;;;;;22.34;41.25;101356.47;4960756;28;45318;-60
2022/07/29 06:22:18;;;;;;;;;12.50;7.75;;;;;22.36;41.13;101354.50;4961552;28;45544;-60
2022/07/29 06:24:43;;;;;;;;;8.00;7.00;;;;;22.39;41.52;101355.00;4961261;28;45536;-60
2022/07/29 06:27:12;;;;;;;;;11.75;9.00;;;;;22.44;41.04;101352.72;4961129;28;46142;-60
2022/07/29 06:29:38;;;;;;;;;8.75;7.00;;;;;22.52;40.93;101354.66;4961265;28;45166;-60
2022/07/29 06:32:04;;;;;;;;;12.00;9.50;;;;;22.59;41.22;101358.38;4961329;28;45349;-60
2022/07/29 06:34:29;;;;;;;;;15.75;8.50;;;;;22.62;41.10;101349.19;4961256;28;45476;-60
2022/07/29 06:36:55;;;;;;;;;9.00;7.00;;;;;22.67;40.54;101358.47;4958949;28;46139;-60
2022/07/29 06:39:20;;;;;;;;;9.25;8.00;;;;;22.70;40.98;101366.22;4945383;28;45270;-61
2022/07/29 06:41:48;;;;;;;;;7.00;7.00;;;;;22.71;41.02;101365.22;4962172;28;45229;-60
2022/07/29 06:44:14;;;;;;;;;14.25;12.00;;;;;22.77;40.81;101361.91;4964257;28;45635;-60
2022/07/29 06:46:39;;;;;;;;;10.75;8.75;;;;;22.84;41.12;101363.00;4964149;28;45380;-60
2022/07/29 06:49:05;;;;;;;;;10.50;7.00;;;;;22.96;41.03;101368.97;4964199;28;45364;-60
2022/07/29 06:51:30;;;;;;;;;8.00;7.25;;;;;23.06;40.53;101368.88;4964314;28;45334;-60
2022/07/29 06:53:57;;;;;;;;;9.50;9.00;;;;;23.10;40.05;101368.41;4964091;28;45311;-60
2022/07/29 06:56:23;;;;;;;;;8.00;8.00;;;;;23.09;40.52;101368.56;4964073;28;45688;-60
2022/07/29 06:58:48;;;;;;;;;7.75;7.75;;;;;23.11;40.02;101362.03;4964036;28;45263;-60
2022/07/29 07:01:14;;;;;;;;;11.50;8.00;;;;;23.16;40.33;101371.47;4964296;28;45171;-60
2022/07/29 07:03:39;;;;;;;;;9.50;7.25;;;;;23.24;39.94;101369.69;4964194;28;45250;-60
2022/07/29 07:06:05;;;;;;;;;8.00;6.50;;;;;23.32;40.11;101372.44;4962320;28;45449;-60
2022/07/29 07:08:30;;;;;;;;;9.25;8.75;;;;;23.37;39.71;101375.47;4963930;28;45180;-59
2022/07/29 07:10:56;;;;;;;;;9.25;8.00;;;;;23.44;40.14;101372.16;4964087;28;45327;-59
2022/07/29 07:13:22;;;;;;;;;12.00;8.50;;;;;23.49;39.52;101380.59;4963994;28;45276;-59
2022/07/29 07:15:48;;;;;;;;;9.75;8.25;;;;;23.52;39.88;101374.88;4963771;28;46027;-60
2022/07/29 07:18:15;;;;;;;;;10.25;8.25;;;;;23.60;39.49;101372.28;4963528;28;45767;-59
2022/07/29 07:20:41;;;;;;;;;11.00;9.00;;;;;23.68;39.52;101380.38;4963916;28;45449;-59
2022/07/29 07:23:06;;;;;;;;;9.75;7.75;;;;;23.71;39.55;101376.56;4963859;28;45263;-59
2022/07/29 07:25:32;;;;;;;;;13.50;10.00;;;;;23.75;39.17;101378.75;4963641;28;45442;-59
2022/07/29 07:27:57;;;;;;;;;13.50;11.00;;;;;23.79;39.57;101380.13;4963806;28;45282;-59
2022/07/29 07:30:23;;;;;;;;;18.50;13.00;;;;;23.85;39.11;101382.13;4978601;28;45323;-59
2022/07/29 07:32:48;;;;;;;;;17.25;13.50;;;;;23.88;39.85;101389.06;4963829;28;45544;-59
2022/07/29 07:35:14;;;;;;;;;14.50;11.50;;;;;23.90;39.84;101387.88;4963341;28;45438;-59
2022/07/29 07:37:40;;;;;;;;;16.25;9.75;;;;;23.96;39.41;101386.41;4955409;28;45162;-59
2022/07/29 07:40:07;;;;;;;;;13.50;11.75;;;;;24.00;39.40;101385.06;4953977;28;45238;-59
2022/07/29 07:42:32;;;;;;;;;13.50;10.00;;;;;24.03;39.48;101390.13;4963338;28;45600;-58
2022/07/29 07:44:58;;;;;;;;;15.25;11.00;;;;;24.04;40.05;101389.13;4963247;28;45491;-59
2022/07/29 07:47:24;;;;;;;;;14.00;9.75;;;;;24.06;39.99;101387.09;4963230;28;45358;-59
2022/07/29 07:49:50;;;;;;;;;19.50;14.25;;;;;24.09;39.56;101385.94;4961938;28;45442;-58
2022/07/29 07:52:19;;;;;;;;;16.75;10.00;;;;;24.17;39.81;101386.81;4963413;28;45346;-58
2022/07/29 07:54:44;;;;;;;;;15.75;11.25;;;;;24.20;40.02;101389.19;4962449;28;46267;-58
2022/07/29 07:57:11;;;;;;;;;14.25;11.00;;;;;24.22;39.65;101395.22;4963064;28;45260;-58
2022/07/29 07:59:37;;;;;;;;;12.00;10.25;;;;;24.29;39.58;101386.50;4963436;28;45299;-58
2022/07/29 08:02:03;;;;;;;;;11.50;8.75;;;;;24.32;39.73;101392.44;4962700;28;45460;-58
2022/07/29 08:04:28;;;;;;;;;14.25;11.00;;;;;24.36;39.08;101390.25;4962462;28;45345;-58
2022/07/29 08:06:54;;;;;;;;;11.00;9.00;;;;;24.38;39.59;101394.47;4962669;28;45342;-58
2022/07/29 08:09:21;;;;;;;;;12.75;9.50;;;;;24.44;39.43;101393.81;4963340;28;45398;-58
2022/07/29 08:11:46;;;;;;;;;11.00;9.75;;;;;24.47;39.56;101389.94;4962941;28;45504;-58
2022/07/29 08:14:13;;;;;;;;;14.75;10.25;;;;;24.52;39.25;101392.16;4962918;28;45414;-58
2022/07/29 08:16:40;;;;;;;;;10.50;8.00;;;;;24.57;39.31;101387.94;4962630;28;45265;-58
2022/07/29 08:19:05;;;;;;;;;13.25;8.25;;;;;24.63;39.01;101394.50;4962811;28;45287;-58
2022/07/29 08:21:31;;;;;;;;;10.75;8.25;;;;;24.63;39.19;101395.34;4962542;28;45389;-59
2022/07/29 08:26:44;;;;;;;;;9.50;7.00;;;;;24.65;38.60;101395.22;4962862;28;45284;-59
2022/07/29 08:29:10;;;;;;;;;8.00;7.00;;;;;24.68;38.74;101393.00;4962576;28;45330;-58
2022/07/29 08:31:39;;;;;;;;;6.75;6.25;;;;;24.69;38.32;101388.47;4962408;28;45631;-59
2022/07/29 08:34:05;;;;;;;;;7.25;6.00;;;;;24.73;38.58;101389.81;4962140;28;46274;-58
2022/07/29 08:36:32;;;;;;;;;7.00;7.00;;;;;24.78;38.10;101385.59;4962049;28;45232;-58
2022/07/29 08:38:58;;;;;;;;;7.25;7.25;;;;;24.81;37.97;101387.13;4944835;28;45213;-58
2022/07/29 08:41:24;;;;;;;;;5.75;5.25;;;;;24.81;38.34;101391.69;4962609;28;45353;-59
2022/07/29 08:43:51;;;;;;;;;10.25;7.25;;;;;24.78;38.15;101385.59;4962150;28;45513;-58
2022/07/29 08:46:17;;;;;;;;;8.75;6.75;;;;;24.82;37.64;101390.66;4961944;28;45278;-62
2022/07/29 08:48:43;;;;;;;;;7.25;6.00;;;;;24.86;37.58;101386.59;4961039;28;45314;-59
2022/07/29 08:51:13;;;;;;;;;5.00;5.00;;;;;24.95;37.38;101388.28;4962385;28;45254;-60
2022/07/29 08:53:42;;;;;;;;;6.75;5.00;;;;;25.02;37.51;101389.31;4962621;28;46293;-60
2022/07/29 08:56:12;;;;;;;;;6.00;4.25;;;;;25.12;37.44;101391.84;4962594;28;45433;-59
2022/07/29 08:58:38;;;;;;;;;4.50;3.75;;;;;25.21;37.54;101391.69;4962383;28;45524;-59
2022/07/29 09:01:04;;;;;;;;;4.75;3.75;;;;;25.28;37.58;101392.69;4962320;28;45610;-60
2022/07/29 09:03:32;;;;;;;;;7.00;4.50;;;;;25.37;37.36;101389.97;4962272;28;45428;-60
2022/07/29 09:06:02;;;;;;;;;5.00;5.00;;;;;25.44;36.89;101389.13;4962159;28;46571;-60
2022/07/29 09:08:28;;;;;;;;;8.25;5.25;;;;;25.49;36.92;101385.88;4962335;28;45436;-60
2022/07/29 09:10:55;;;;;;;;;4.25;3.75;;;;;25.54;37.14;101381.66;4962353;28;45270;-60
2022/07/29 09:13:22;;;;;;;;;7.00;5.25;;;;;25.62;36.89;101388.91;4962192;28;45489;-60
2022/07/29 09:15:48;;;;;;;;;4.00;4.00;;;;;25.70;36.67;101383.47;4961825;28;45368;-60
2022/07/29 09:18:38;;;;;;;;;10.00;8.75;;;;;25.81;36.35;101387.66;4961922;28;45234;-60
2022/07/29 09:24:17;;;;;;;;;3.75;2.50;;;;;26.00;36.08;101387.28;4961997;28;45342;-60
2022/07/29 09:26:47;;;;;;;;;4.75;4.00;;;;;26.05;35.87;101386.72;4959997;28;45361;-59
2022/07/29 09:29:15;;;;;;;;;4.75;3.75;;;;;26.09;35.91;101383.50;4961788;28;45326;-60
2022/07/29 09:31:43;;;;;;;;;3.00;3.00;;;;;26.15;35.67;101388.22;4962145;28;45215;-59
2022/07/29 09:34:10;;;;;;;;;6.50;4.00;;;;;26.24;35.93;101377.34;4961569;28;45511;-60
2022/07/29 09:36:47;;;;;;;;;3.00;3.00;;;;;26.34;35.79;101384.22;4961308;28;45294;-59
2022/07/29 09:39:14;;;;;;;;;5.25;4.00;;;;;26.41;35.82;101385.22;4958049;28;45451;-59
2022/07/29 09:41:53;;;;;;;;;4.25;2.75;;;;;26.49;35.66;101383.47;4961969;28;45505;-60
2022/07/29 09:44:20;;;;;;;;;6.00;5.50;;;;;26.56;35.32;101389.84;4961268;28;46065;-58
2022/07/29 09:47:05;;;;;;;;;5.25;5.00;;;;;26.63;35.50;101382.72;4961529;28;45433;-58
2022/07/29 09:49:31;;;;;;;;;5.00;5.00;;;;;26.71;35.32;101390.75;4961836;28;45346;-59
2022/07/29 09:52:15;;;;;;;;;3.00;2.75;;;;;26.77;35.38;101386.47;4961657;28;45393;-59
2022/07/29 09:54:41;;;;;;;;;4.50;3.25;;;;;26.79;35.11;101390.69;4961703;28;45373;-59
2022/07/29 09:57:12;;;;;;;;;4.00;4.00;;;;;26.88;34.99;101388.75;4961398;28;45337;-59
2022/07/29 09:59:38;;;;;;;;;4.50;3.75;;;;;26.96;34.67;101380.56;4961912;28;45303;-59
2022/07/29 10:02:11;;;;;;;;;5.00;4.50;;;;;27.02;34.79;101381.69;4961514;28;45338;-59
2022/07/29 10:04:41;;;;;;;;;4.75;4.00;;;;;27.10;34.97;101387.91;4961231;28;45249;-59
2022/07/29 10:07:07;;;;;;;;;8.00;4.50;;;;;27.17;34.74;101379.88;4961054;28;45528;-60
2022/07/29 10:09:34;;;;;;;;;5.00;4.00;;;;;27.24;34.71;101378.13;4961276;28;45315;-59
2022/07/29 10:12:09;;;;;;;;;6.00;4.75;;;;;27.33;34.12;101382.41;4961212;28;45331;-60
2022/07/29 10:14:36;;;;;;;;;3.50;2.00;;;;;27.38;34.19;101381.88;4961125;28;45395;-60
2022/07/29 10:17:03;;;;;;;;;10.75;9.25;;;;;27.44;33.71;101379.28;4962053;28;45348;-59
2022/07/29 10:19:33;;;;;;;;;26.25;25.75;;;;;27.46;33.84;101379.94;4964461;28;45306;-58
2022/07/29 10:21:59;;;;;;;;;13.75;11.50;;;;;27.53;33.97;101380.88;4964689;28;45254;-59
2022/07/29 10:24:27;;;;;;;;;10.25;8.75;;;;;27.64;34.19;101376.00;4964663;28;45332;-59
2022/07/29 10:26:55;;;;;;;;;3.25;3.25;;;;;27.71;33.54;101383.22;4964442;28;45392;-59
2022/07/29 10:29:21;;;;;;;;;5.75;5.00;;;;;27.77;33.52;101381.63;4963363;28;45400;-59
2022/07/29 10:32:13;;;;;;;;;3.00;3.00;;;;;27.84;33.24;101385.28;4964490;28;45322;-60
2022/07/29 10:35:06;;;;;;;;;7.25;6.75;;;;;27.90;33.65;101386.41;4964101;28;45434;-60
2022/07/29 10:38:07;;;;;;;;;13.50;12.50;;;;;27.93;33.34;101381.44;4957468;28;45263;-59
2022/07/29 10:43:40;;;;;;;;;5.25;5.25;;;;;28.04;32.86;101374.69;4964512;28;45355;-59
2022/07/29 10:46:06;;;;;;;;;4.00;4.00;;;;;28.08;32.95;101378.69;4963902;28;45298;-60
2022/07/29 10:48:32;;;;;;;;;6.25;4.50;;;;;28.12;32.96;101385.41;4964166;28;45186;-59
2022/07/29 10:50:59;;;;;;;;;11.75;10.75;;;;;28.16;32.39;101383.16;4963668;28;45220;-59
2022/07/29 10:53:46;;;;;;;;;5.25;3.25;;;;;28.21;32.36;101389.69;4964610;28;45315;-59
2022/07/29 10:56:34;;;;;;;;;6.00;6.00;;;;;28.26;32.46;101387.25;4963866;28;45589;-60
2022/07/29 10:59:21;;;;;;;;;5.25;4.50;;;;;28.34;32.67;101383.59;4964110;28;45238;-58
2022/07/29 11:01:49;;;;;;;;;6.00;5.00;;;;;28.34;32.72;101378.19;4963971;28;45311;-59
2022/07/29 11:04:15;;;;;;;;;4.75;4.50;;;;;28.27;32.01;101372.66;4964017;28;45429;-58
2022/07/29 11:07:00;;;;;;;;;5.25;4.75;;;;;28.21;32.22;101378.03;4963333;28;46020;-59
2022/07/29 11:09:25;;;;;;;;;4.75;4.50;;;;;28.26;32.11;101383.69;4963851;28;45311;-60
2022/07/29 11:11:51;;;;;;;;;14.75;10.50;;;;;28.33;32.63;101381.94;4963840;28;45358;-59
2022/07/29 11:14:18;;;;;;;;;6.25;6.25;;;;;28.45;31.95;101372.28;4963977;28;45323;-60
2022/07/29 11:17:02;;;;;;;;;3.50;3.25;;;;;28.60;32.50;101381.19;4963444;28;45309;-59
2022/07/29 11:19:28;;;;;;;;;4.25;4.25;;;;;28.70;32.12;101378.16;4963618;28;45231;-59
2022/07/29 11:21:54;;;;;;;;;4.25;4.25;;;;;28.78;31.80;101374.47;4963585;28;45320;-59
2022/07/29 11:24:28;;;;;;;;;6.50;5.25;;;;;28.87;31.61;101378.72;4963861;28;45507;-59
2022/07/29 11:27:06;;;;;;;;;7.00;4.00;;;;;28.96;31.98;101380.28;4964053;28;45233;-59
2022/07/29 11:29:35;;;;;;;;;9.25;8.75;;;;;28.94;31.23;101378.81;4962407;28;45263;-59
2022/07/29 11:32:14;;;;;;;;;7.00;5.00;;;;;28.93;31.23;101383.41;4963552;28;45337;-60